createdAt,value
2023-06-24T00:02:02.841Z,4.97
2023-06-24T00:04:29.574Z,5.60
2023-06-24T00:06:57.723Z,5.45
2023-06-24T00:09:26.984Z,5.80
2023-06-24T00:11:53.438Z,5.70
2023-06-24T00:14:22.280Z,5.47
2023-06-24T00:16:52.191Z,5.88
2023-06-24T00:19:24.059Z,5.35
2023-06-24T00:21:54.538Z,5.93
2023-06-24T00:24:27.014Z,5.75
2023-06-24T00:26:54.373Z,5.85
2023-06-24T00:29:21.089Z,5.70
2023-06-24T00:31:47.734Z,5.97
2023-06-24T00:34:14.779Z,6.07
2023-06-24T00:36:41.522Z,6.22
2023-06-24T00:39:08.081Z,6.13
2023-06-24T00:41:35.538Z,6.53
2023-06-24T00:44:02.709Z,5.97
2023-06-24T00:46:29.759Z,5.95
2023-06-24T00:48:57.586Z,5.70
2023-06-24T00:51:31.475Z,5.63
2023-06-24T00:53:59.141Z,6.05
2023-06-24T00:56:34.859Z,5.65
2023-06-24T00:59:05.226Z,6.20
2023-06-24T01:01:36.362Z,6.20
2023-06-24T01:04:04.025Z,6.20
2023-06-24T01:06:31.122Z,6.17
2023-06-24T01:09:01.377Z,6.45
2023-06-24T01:11:28.701Z,6.47
2023-06-24T01:13:55.297Z,6.38
2023-06-24T01:17:00.328Z,6.28
2023-06-24T01:19:46.745Z,6.40
2023-06-24T01:22:22.329Z,6.45
2023-06-24T01:25:05.411Z,6.80
2023-06-24T01:28:01.535Z,6.75
2023-06-24T01:30:43.416Z,6.70
2023-06-24T01:33:19.818Z,7.15
2023-06-24T01:35:48.764Z,6.57
2023-06-24T01:38:40.530Z,6.57
2023-06-24T01:41:07.537Z,7.20
2023-06-24T01:43:37.053Z,6.25
2023-06-24T01:46:13.256Z,6.50
2023-06-24T01:48:44.633Z,6.40
2023-06-24T01:51:14.276Z,6.93
2023-06-24T01:53:49.449Z,6.78
2023-06-24T01:56:17.209Z,6.80
2023-06-24T01:58:45.910Z,6.78
2023-06-24T02:01:14.408Z,6.80
2023-06-24T02:03:43.101Z,6.70
2023-06-24T02:06:10.743Z,6.18
2023-06-24T02:08:41.000Z,6.60
2023-06-24T02:11:10.323Z,7.13
2023-06-24T02:13:38.097Z,6.60
2023-06-24T02:16:07.670Z,6.80
2023-06-24T02:18:36.744Z,6.30
2023-06-24T02:21:05.455Z,6.00
2023-06-24T02:23:32.924Z,6.00
2023-06-24T02:26:00.884Z,6.13
2023-06-24T02:28:27.998Z,6.13
2023-06-24T02:30:55.388Z,6.43
2023-06-24T02:33:22.008Z,5.85
2023-06-24T02:35:48.813Z,6.07
2023-06-24T02:38:15.394Z,6.10
2023-06-24T02:40:45.398Z,6.65
2023-06-24T02:43:12.617Z,6.32
2023-06-24T02:45:40.228Z,6.37
2023-06-24T02:48:09.612Z,6.13
2023-06-24T02:50:38.377Z,6.70
2023-06-24T02:53:05.941Z,6.82
2023-06-24T02:55:34.634Z,6.38
2023-06-24T02:58:03.297Z,6.77
2023-06-24T03:00:30.765Z,6.57
2023-06-24T03:02:57.427Z,7.63
2023-06-24T03:05:26.583Z,7.03
2023-06-24T03:07:53.456Z,7.27
2023-06-24T03:10:20.086Z,7.03
2023-06-24T03:12:48.375Z,7.28
2023-06-24T03:15:14.815Z,7.63
2023-06-24T03:17:41.385Z,7.57
2023-06-24T03:20:09.694Z,7.22
2023-06-24T03:22:37.403Z,7.70
2023-06-24T03:25:04.324Z,7.53
2023-06-24T03:27:32.396Z,7.75
2023-06-24T03:29:58.920Z,7.60
2023-06-24T03:32:25.401Z,8.13
2023-06-24T03:34:51.940Z,7.87
2023-06-24T03:37:18.543Z,7.32
2023-06-24T03:39:45.004Z,7.88
2023-06-24T03:42:11.492Z,7.03
2023-06-24T03:44:37.948Z,7.90
2023-06-24T03:47:04.640Z,8.23
2023-06-24T03:49:31.085Z,6.97
2023-06-24T03:51:57.548Z,7.15
2023-06-24T03:54:24.033Z,7.60
2023-06-24T03:57:18.619Z,7.43
2023-06-24T03:59:45.091Z,7.20
2023-06-24T04:02:11.656Z,7.60
2023-06-24T04:04:38.375Z,7.05
2023-06-24T04:07:06.674Z,7.57
2023-06-24T04:09:36.660Z,7.55
2023-06-24T04:12:03.437Z,7.15
2023-06-24T04:14:29.908Z,7.47
2023-06-24T04:16:56.352Z,7.05
2023-06-24T04:19:22.870Z,7.15
2023-06-24T04:21:49.353Z,7.73
2023-06-24T04:24:15.806Z,7.43
2023-06-24T04:26:42.266Z,7.73
2023-06-24T04:29:08.737Z,7.50
2023-06-24T04:31:35.332Z,8.00
2023-06-24T04:34:01.839Z,7.70
2023-06-24T04:36:28.289Z,7.72
2023-06-24T04:38:55.000Z,7.60
2023-06-24T04:41:21.450Z,8.13
2023-06-24T04:43:47.946Z,7.60
2023-06-24T04:46:14.461Z,7.93
2023-06-24T04:48:40.921Z,7.85
2023-06-24T04:51:07.460Z,7.32
2023-06-24T04:53:34.844Z,7.78
2023-06-24T04:56:01.618Z,7.50
2023-06-24T04:58:28.079Z,7.88
2023-06-24T05:00:55.007Z,7.32
2023-06-24T05:03:21.540Z,8.32
2023-06-24T05:05:48.066Z,7.88
2023-06-24T05:08:14.571Z,7.68
2023-06-24T05:10:41.028Z,7.82
2023-06-24T05:13:07.542Z,7.28
2023-06-24T05:15:34.157Z,7.20
2023-06-24T05:18:00.983Z,8.27
2023-06-24T05:20:27.548Z,7.78
2023-06-24T05:22:54.159Z,7.95
2023-06-24T05:25:20.616Z,7.63
2023-06-24T05:27:47.166Z,7.97
2023-06-24T05:30:15.249Z,8.55
2023-06-24T05:32:42.210Z,8.18
2023-06-24T05:35:08.891Z,8.27
2023-06-24T05:37:35.944Z,9.05
2023-06-24T05:40:03.616Z,8.00
2023-06-24T05:42:30.149Z,7.93
2023-06-24T05:44:56.601Z,8.23
2023-06-24T05:47:23.204Z,8.68
2023-06-24T05:49:49.720Z,8.77
2023-06-24T05:52:16.198Z,8.10
2023-06-24T05:54:42.658Z,8.00
2023-06-24T05:57:10.211Z,8.23
2023-06-24T05:59:36.734Z,9.05
2023-06-24T06:02:03.321Z,8.35
2023-06-24T06:04:30.101Z,8.00
2023-06-24T06:06:56.690Z,8.07
2023-06-24T06:09:23.375Z,7.18
2023-06-24T06:11:49.829Z,7.30
2023-06-24T06:14:16.422Z,7.25
2023-06-24T06:16:42.882Z,8.70
2023-06-24T06:19:09.349Z,8.55
2023-06-24T06:21:38.324Z,7.75
2023-06-24T06:32:05.499Z,7.60
2023-06-24T06:34:32.088Z,7.10
2023-06-24T06:36:58.581Z,8.57
2023-06-24T06:39:25.089Z,7.70
2023-06-24T06:41:51.690Z,7.40
2023-06-24T06:49:23.457Z,7.37
2023-06-24T06:51:50.036Z,7.20
2023-06-24T06:54:16.593Z,7.53
2023-06-24T06:56:44.388Z,7.85
2023-06-24T06:59:12.816Z,7.18
2023-06-24T07:01:39.417Z,8.10
2023-06-24T07:04:05.939Z,7.57
2023-06-24T07:06:33.743Z,7.28
2023-06-24T07:09:50.230Z,6.63
2023-06-24T07:15:45.572Z,7.15
2023-06-24T07:18:12.080Z,5.68
2023-06-24T07:28:37.778Z,5.97
2023-06-24T07:47:07.460Z,5.57
2023-06-24T07:49:34.126Z,6.15
2023-06-24T07:52:00.672Z,6.70
2023-06-24T07:54:27.143Z,6.30
2023-06-24T07:56:53.618Z,6.20
2023-06-24T07:59:20.282Z,5.50
2023-06-24T08:01:46.901Z,6.35
2023-06-24T08:04:13.487Z,6.30
2023-06-24T08:06:40.120Z,5.38
2023-06-24T08:09:06.620Z,6.38
2023-06-24T08:11:33.188Z,5.72
2023-06-24T08:13:59.675Z,5.63
2023-06-24T08:16:26.415Z,5.38
2023-06-24T08:18:52.890Z,6.10
2023-06-24T08:21:19.351Z,5.50
2023-06-24T08:23:46.928Z,6.22
2023-06-24T08:26:17.591Z,5.20
2023-06-24T08:28:44.704Z,5.88
2023-06-24T08:31:11.270Z,6.03
2023-06-24T08:33:37.735Z,5.50
2023-06-24T08:36:04.431Z,6.43
2023-06-24T08:38:30.956Z,6.28
2023-06-24T08:40:57.478Z,6.05
2023-06-24T08:43:24.004Z,5.55
2023-06-24T08:45:50.655Z,5.45
2023-06-24T08:48:19.496Z,6.00
2023-06-24T09:02:57.482Z,6.95
2023-06-24T09:21:17.722Z,7.53
2023-06-24T09:27:21.803Z,8.25
2023-06-24T10:39:19.295Z,5.38
2023-06-24T10:42:08.518Z,4.50
2023-06-24T10:45:35.794Z,5.35
2023-06-24T10:51:49.825Z,6.10
2023-06-24T10:58:58.020Z,6.50
2023-06-24T11:11:07.640Z,5.60
2023-06-24T11:13:34.833Z,4.65
2023-06-24T11:16:02.158Z,4.68
2023-06-24T11:18:38.811Z,4.25
2023-06-24T11:21:07.401Z,4.57
2023-06-24T11:23:33.943Z,4.80
2023-06-24T11:26:03.965Z,5.60
2023-06-24T11:28:32.688Z,5.25
2023-06-24T11:31:07.522Z,5.38
2023-06-24T11:33:34.094Z,5.50
2023-06-24T11:36:01.039Z,5.88
2023-06-24T11:38:33.316Z,5.55
2023-06-24T11:41:00.022Z,4.13
2023-06-24T11:43:27.211Z,3.83
2023-06-24T11:45:53.722Z,3.70
2023-06-24T11:48:21.441Z,3.80
2023-06-24T11:50:55.744Z,3.70
2023-06-24T11:53:41.313Z,3.35
2023-06-24T11:56:07.765Z,3.70
2023-06-24T11:58:36.770Z,3.65
2023-06-24T12:01:03.946Z,3.75
2023-06-24T12:03:33.530Z,3.13
2023-06-24T12:06:00.868Z,3.10
2023-06-24T12:08:29.164Z,3.20
2023-06-24T12:11:00.056Z,3.35
2023-06-24T12:13:26.542Z,3.60
2023-06-24T12:15:53.048Z,3.70
2023-06-24T12:18:19.517Z,3.92
2023-06-24T12:20:46.012Z,3.40
2023-06-24T12:23:12.527Z,3.50
2023-06-24T12:25:39.060Z,3.40
2023-06-24T12:28:05.605Z,3.30
2023-06-24T12:30:32.116Z,3.08
2023-06-24T12:32:58.786Z,2.75
2023-06-24T12:35:28.616Z,2.88
2023-06-24T12:37:55.704Z,2.80
2023-06-24T12:40:22.232Z,3.10
2023-06-24T12:42:48.749Z,3.38
2023-06-24T12:45:15.282Z,3.50
2023-06-24T12:47:41.921Z,3.10
2023-06-24T12:50:10.000Z,3.07
2023-06-24T12:52:38.339Z,2.90
2023-06-24T12:55:06.367Z,2.70
2023-06-24T12:57:32.820Z,2.53
2023-06-24T12:59:59.355Z,2.27
2023-06-24T13:02:25.858Z,2.72
2023-06-24T13:04:52.730Z,2.87
2023-06-24T13:07:19.203Z,2.80
2023-06-24T13:09:45.769Z,2.65
2023-06-24T13:12:12.261Z,2.60
2023-06-24T13:14:38.740Z,2.30
2023-06-24T13:17:05.491Z,2.47
2023-06-24T13:19:33.525Z,2.13
2023-06-24T13:22:00.403Z,2.55
2023-06-24T13:24:26.925Z,2.47
2023-06-24T13:26:53.370Z,2.72
2023-06-24T13:29:21.507Z,2.70
2023-06-24T13:31:48.163Z,2.70
2023-06-24T13:34:14.642Z,2.75
2023-06-24T13:36:41.821Z,2.63
2023-06-24T13:39:10.102Z,3.13
2023-06-24T13:41:36.681Z,2.55
